sensor_id;sensor_type;location;lat;lon;timestamp;pressure;altitude;pressure_sealevel;temperature;humidity
16690;BME280;8458;52.220;9.884;2022-12-07T00:01:33;100629.75;;;3.25;100.00
16690;BME280;8458;52.220;9.884;2022-12-07T00:04:02;100626.78;;;3.27;100.00
16690;BME280;8458;52.220;9.884;2022-12-07T00:06:30;100622.81;;;3.22;100.00
16690;BME280;8458;52.220;9.884;2022-12-07T00:08:57;100623.66;;;3.23;100.00
16690;BME280;8458;52.220;9.884;2022-12-07T00:11:23;100620.09;;;3.22;100.00
16690;BME280;8458;52.220;9.884;2022-12-07T00:13:51;100612.88;;;3.28;100.00
16690;BME280;8458;52.220;9.884;2022-12-07T00:16:20;100603.44;;;3.24;100.00
16690;BME280;8458;52.220;9.884;2022-12-07T00:18:46;100618.78;;;3.25;100.00
16690;BME280;8458;52.220;9.884;2022-12-07T00:21:17;100620.31;;;3.21;100.00
16690;BME280;8458;52.220;9.884;2022-12-07T00:23:45;100612.53;;;3.18;100.00
16690;BME280;8458;52.220;9.884;2022-12-07T00:26:16;100605.53;;;3.22;100.00
16690;BME280;8458;52.220;9.884;2022-12-07T00:28:45;100601.28;;;3.26;100.00
16690;BME280;8458;52.220;9.884;2022-12-07T00:31:12;100604.44;;;3.30;100.00
16690;BME280;8458;52.220;9.884;2022-12-07T00:33:39;100597.06;;;3.30;100.00
16690;BME280;8458;52.220;9.884;2022-12-07T00:36:12;100596.22;;;3.30;100.00
16690;BME280;8458;52.220;9.884;2022-12-07T00:38:40;100594.28;;;3.37;100.00
16690;BME280;8458;52.220;9.884;2022-12-07T00:41:09;100597.84;;;3.37;100.00
16690;BME280;8458;52.220;9.884;2022-12-07T00:43:37;100588.13;;;3.41;100.00
16690;BME280;8458;52.220;9.884;2022-12-07T00:46:04;100583.72;;;3.40;100.00
16690;BME280;8458;52.220;9.884;2022-12-07T00:48:30;100578.44;;;3.46;100.00
16690;BME280;8458;52.220;9.884;2022-12-07T00:50:57;100584.97;;;3.45;100.00
16690;BME280;8458;52.220;9.884;2022-12-07T00:53:24;100577.78;;;3.44;100.00
16690;BME280;8458;52.220;9.884;2022-12-07T00:55:52;100570.00;;;3.40;100.00
16690;BME280;8458;52.220;9.884;2022-12-07T00:58:19;100571.88;;;3.47;100.00
16690;BME280;8458;52.220;9.884;2022-12-07T01:00:45;100572.06;;;3.52;100.00
16690;BME280;8458;52.220;9.884;2022-12-07T01:03:14;100568.25;;;3.53;100.00
16690;BME280;8458;52.220;9.884;2022-12-07T01:05:49;100572.66;;;3.54;100.00
16690;BME280;8458;52.220;9.884;2022-12-07T01:08:16;100565.06;;;3.56;100.00
16690;BME280;8458;52.220;9.884;2022-12-07T01:10:42;100567.19;;;3.54;100.00
16690;BME280;8458;52.220;9.884;2022-12-07T01:13:10;100568.25;;;3.53;100.00
16690;BME280;8458;52.220;9.884;2022-12-07T01:15:39;100560.66;;;3.55;100.00
16690;BME280;8458;52.220;9.884;2022-12-07T01:18:05;100564.63;;;3.59;100.00
16690;BME280;8458;52.220;9.884;2022-12-07T01:20:32;100569.09;;;3.53;100.00
16690;BME280;8458;52.220;9.884;2022-12-07T01:22:58;100567.78;;;3.56;100.00
16690;BME280;8458;52.220;9.884;2022-12-07T01:25:25;100563.56;;;3.60;100.00
16690;BME280;8458;52.220;9.884;2022-12-07T01:27:51;100565.69;;;3.58;100.00
16690;BME280;8458;52.220;9.884;2022-12-07T01:30:19;100562.31;;;3.56;100.00
16690;BME280;8458;52.220;9.884;2022-12-07T01:32:46;100562.72;;;3.59;100.00
16690;BME280;8458;52.220;9.884;2022-12-07T01:35:12;100550.50;;;3.55;100.00
16690;BME280;8458;52.220;9.884;2022-12-07T01:37:39;100550.91;;;3.59;100.00
16690;BME280;8458;52.220;9.884;2022-12-07T01:40:07;100548.56;;;3.63;100.00
16690;BME280;8458;52.220;9.884;2022-12-07T01:42:34;100544.59;;;3.58;100.00
16690;BME280;8458;52.220;9.884;2022-12-07T01:48:13;100551.34;;;3.56;100.00
16690;BME280;8458;52.220;9.884;2022-12-07T01:50:42;100544.97;;;3.62;100.00
16690;BME280;8458;52.220;9.884;2022-12-07T01:53:10;100548.81;;;3.61;100.00
16690;BME280;8458;52.220;9.884;2022-12-07T01:55:38;100541.25;;;3.56;100.00
16690;BME280;8458;52.220;9.884;2022-12-07T01:58:06;100546.94;;;3.55;100.00
16690;BME280;8458;52.220;9.884;2022-12-07T02:00:33;100551.19;;;3.51;100.00
16690;BME280;8458;52.220;9.884;2022-12-07T02:03:04;100551.63;;;3.48;100.00
16690;BME280;8458;52.220;9.884;2022-12-07T02:05:33;100548.81;;;3.54;100.00
16690;BME280;8458;52.220;9.884;2022-12-07T02:08:01;100538.72;;;3.55;100.00
16690;BME280;8458;52.220;9.884;2022-12-07T02:10:30;100535.75;;;3.56;100.00
16690;BME280;8458;52.220;9.884;2022-12-07T02:12:58;100532.78;;;3.58;100.00
16690;BME280;8458;52.220;9.884;2022-12-07T02:15:34;100534.00;;;3.62;100.00
16690;BME280;8458;52.220;9.884;2022-12-07T02:18:07;100529.81;;;3.59;100.00
16690;BME280;8458;52.220;9.884;2022-12-07T02:20:39;100528.97;;;3.59;100.00
16690;BME280;8458;52.220;9.884;2022-12-07T02:23:30;100525.16;;;3.60;100.00
16690;BME280;8458;52.220;9.884;2022-12-07T02:26:26;100535.69;;;3.63;100.00
16690;BME280;8458;52.220;9.884;2022-12-07T02:29:13;100527.31;;;3.58;100.00
16690;BME280;8458;52.220;9.884;2022-12-07T02:31:46;100521.41;;;3.54;100.00
16690;BME280;8458;52.220;9.884;2022-12-07T02:34:21;100520.13;;;3.57;100.00
16690;BME280;8458;52.220;9.884;2022-12-07T02:36:52;100515.47;;;3.57;100.00
16690;BME280;8458;52.220;9.884;2022-12-07T02:39:26;100509.16;;;3.57;100.00
16690;BME280;8458;52.220;9.884;2022-12-07T02:41:57;100510.66;;;3.53;100.00
16690;BME280;8458;52.220;9.884;2022-12-07T02:44:30;100519.97;;;3.52;100.00
16690;BME280;8458;52.220;9.884;2022-12-07T02:47:00;100506.72;;;3.49;100.00
16690;BME280;8458;52.220;9.884;2022-12-07T02:49:30;100507.38;;;3.44;100.00
16690;BME280;8458;52.220;9.884;2022-12-07T02:51:56;100499.97;;;3.45;100.00
16690;BME280;8458;52.220;9.884;2022-12-07T02:54:23;100505.41;;;3.51;100.00
16690;BME280;8458;52.220;9.884;2022-12-07T02:56:52;100501.66;;;3.46;100.00
16690;BME280;8458;52.220;9.884;2022-12-07T02:59:31;100504.06;;;3.35;100.00
16690;BME280;8458;52.220;9.884;2022-12-07T03:02:08;100501.59;;;3.27;100.00
16690;BME280;8458;52.220;9.884;2022-12-07T03:04:45;100498.19;;;3.25;100.00
16690;BME280;8458;52.220;9.884;2022-12-07T03:07:23;100500.16;;;3.18;100.00
16690;BME280;8458;52.220;9.884;2022-12-07T03:09:56;100504.78;;;3.17;100.00
16690;BME280;8458;52.220;9.884;2022-12-07T03:12:30;100504.84;;;3.11;100.00
16690;BME280;8458;52.220;9.884;2022-12-07T03:15:03;100505.72;;;3.04;100.00
16690;BME280;8458;52.220;9.884;2022-12-07T03:17:35;100506.53;;;3.12;100.00
16690;BME280;8458;52.220;9.884;2022-12-07T03:20:09;100507.41;;;3.05;100.00
16690;BME280;8458;52.220;9.884;2022-12-07T03:22:38;100505.09;;;3.02;100.00
16690;BME280;8458;52.220;9.884;2022-12-07T03:25:09;100502.97;;;3.04;100.00
16690;BME280;8458;52.220;9.884;2022-12-07T03:27:39;100508.25;;;3.06;100.00
16690;BME280;8458;52.220;9.884;2022-12-07T03:30:13;100495.19;;;3.01;100.00
16690;BME280;8458;52.220;9.884;2022-12-07T03:32:43;100495.81;;;3.03;100.00
16690;BME280;8458;52.220;9.884;2022-12-07T03:35:15;100493.50;;;3.00;100.00
16690;BME280;8458;52.220;9.884;2022-12-07T03:37:46;100498.59;;;2.97;100.00
16690;BME280;8458;52.220;9.884;2022-12-07T03:40:18;100487.63;;;2.97;100.00
16690;BME280;8458;52.220;9.884;2022-12-07T03:42:47;100488.91;;;2.94;100.00
16690;BME280;8458;52.220;9.884;2022-12-07T03:45:16;100487.63;;;2.97;100.00
16690;BME280;8458;52.220;9.884;2022-12-07T03:47:46;100496.06;;;2.95;100.00
16690;BME280;8458;52.220;9.884;2022-12-07T03:50:17;100486.97;;;3.01;100.00
16690;BME280;8458;52.220;9.884;2022-12-07T03:52:53;100493.50;;;3.00;100.00
16690;BME280;8458;52.220;9.884;2022-12-07T03:55:25;100495.25;;;2.95;100.00
16690;BME280;8458;52.220;9.884;2022-12-07T03:57:56;100480.47;;;2.96;100.00
16690;BME280;8458;52.220;9.884;2022-12-07T04:00:26;100496.94;;;2.89;100.00
16690;BME280;8458;52.220;9.884;2022-12-07T04:02:53;100502.44;;;2.89;100.00
16690;BME280;8458;52.220;9.884;2022-12-07T04:05:19;100493.16;;;2.90;100.00
16690;BME280;8458;52.220;9.884;2022-12-07T04:07:46;100495.03;;;2.90;100.00
16690;BME280;8458;52.220;9.884;2022-12-07T04:10:13;100495.91;;;2.90;100.00
16690;BME280;8458;52.220;9.884;2022-12-07T04:12:39;100489.53;;;2.96;100.00
16690;BME280;8458;52.220;9.884;2022-12-07T04:15:07;100488.00;;;3.07;100.00
16690;BME280;8458;52.220;9.884;2022-12-07T04:17:36;100494.75;;;3.04;100.00
16690;BME280;8458;52.220;9.884;2022-12-07T04:20:03;100494.75;;;3.04;100.00
16690;BME280;8458;52.220;9.884;2022-12-07T04:22:30;100499.56;;;3.09;100.00
16690;BME280;8458;52.220;9.884;2022-12-07T04:24:56;100497.94;;;3.01;100.00
16690;BME280;8458;52.220;9.884;2022-12-07T04:27:23;100496.25;;;3.00;100.00
16690;BME280;8458;52.220;9.884;2022-12-07T04:29:49;100490.97;;;3.05;100.00
16690;BME280;8458;52.220;9.884;2022-12-07T04:32:15;100496.44;;;3.05;100.00
16690;BME280;8458;52.220;9.884;2022-12-07T04:34:43;100501.94;;;2.99;100.00
16690;BME280;8458;52.220;9.884;2022-12-07T04:37:10;100496.88;;;3.02;100.00
16690;BME280;8458;52.220;9.884;2022-12-07T04:39:36;100489.72;;;3.01;100.00
16690;BME280;8458;52.220;9.884;2022-12-07T04:42:03;100500.06;;;2.99;100.00
16690;BME280;8458;52.220;9.884;2022-12-07T04:44:30;100496.47;;;2.99;100.00
16690;BME280;8458;52.220;9.884;2022-12-07T04:46:57;100493.06;;;3.03;100.00
16690;BME280;8458;52.220;9.884;2022-12-07T04:49:24;100489.44;;;3.10;100.00
16690;BME280;8458;52.220;9.884;2022-12-07T04:51:52;100489.66;;;3.08;100.00
16690;BME280;8458;52.220;9.884;2022-12-07T04:54:19;100486.25;;;3.13;100.00
16690;BME280;8458;52.220;9.884;2022-12-07T04:56:45;100476.56;;;3.17;100.00
16690;BME280;8458;52.220;9.884;2022-12-07T04:59:12;100475.75;;;3.10;100.00
16690;BME280;8458;52.220;9.884;2022-12-07T05:01:39;100476.59;;;3.10;100.00
16690;BME280;8458;52.220;9.884;2022-12-07T05:04:07;100475.75;;;3.10;100.00
16690;BME280;8458;52.220;9.884;2022-12-07T05:06:33;100479.06;;;3.18;100.00
16690;BME280;8458;52.220;9.884;2022-12-07T05:09:03;100477.00;;;3.14;100.00
16690;BME280;8458;52.220;9.884;2022-12-07T05:11:29;100479.75;;;3.14;100.00
16690;BME280;8458;52.220;9.884;2022-12-07T05:14:07;100491.72;;;3.19;100.00
16690;BME280;8458;52.220;9.884;2022-12-07T05:16:35;100485.59;;;3.17;100.00
16690;BME280;8458;52.220;9.884;2022-12-07T05:19:01;100481.59;;;3.20;100.00
16690;BME280;8458;52.220;9.884;2022-12-07T05:21:28;100482.19;;;3.22;100.00
16690;BME280;8458;52.220;9.884;2022-12-07T05:23:54;100486.78;;;3.28;100.00
16690;BME280;8458;52.220;9.884;2022-12-07T05:26:22;100477.81;;;3.21;100.00
16690;BME280;8458;52.220;9.884;2022-12-07T05:28:50;100476.56;;;3.17;100.00
16690;BME280;8458;52.220;9.884;2022-12-07T05:31:17;100477.59;;;3.16;100.00
16690;BME280;8458;52.220;9.884;2022-12-07T05:33:44;100475.09;;;3.14;100.00
16690;BME280;8458;52.220;9.884;2022-12-07T05:36:10;100463.44;;;3.26;100.00
16690;BME280;8458;52.220;9.884;2022-12-07T05:38:36;100470.34;;;3.28;100.00
16690;BME280;8458;52.220;9.884;2022-12-07T05:41:04;100471.25;;;3.22;100.00
16690;BME280;8458;52.220;9.884;2022-12-07T05:43:33;100466.84;;;3.21;100.00
16690;BME280;8458;52.220;9.884;2022-12-07T05:45:59;100472.50;;;3.26;100.00
16690;BME280;8458;52.220;9.884;2022-12-07T05:48:26;100471.88;;;3.24;100.00
16690;BME280;8458;52.220;9.884;2022-12-07T05:50:52;100470.03;;;3.18;100.00
16690;BME280;8458;52.220;9.884;2022-12-07T05:53:19;100464.31;;;3.19;100.00
16690;BME280;8458;52.220;9.884;2022-12-07T05:55:46;100460.13;;;3.17;100.00
16690;BME280;8458;52.220;9.884;2022-12-07T05:58:12;100475.94;;;3.15;100.00
16690;BME280;8458;52.220;9.884;2022-12-07T06:00:58;100469.38;;;3.16;100.00
16690;BME280;8458;52.220;9.884;2022-12-07T06:03:24;100472.78;;;3.11;100.00
16690;BME280;8458;52.220;9.884;2022-12-07T06:05:51;100465.22;;;3.07;100.00
16690;BME280;8458;52.220;9.884;2022-12-07T06:08:18;100470.69;;;3.13;100.00
16690;BME280;8458;52.220;9.884;2022-12-07T06:10:47;100477.00;;;3.14;100.00
16690;BME280;8458;52.220;9.884;2022-12-07T06:13:33;100470.63;;;3.20;100.00
16690;BME280;8458;52.220;9.884;2022-12-07T06:16:00;100470.78;;;3.25;100.00
16690;BME280;8458;52.220;9.884;2022-12-07T06:18:27;100483.88;;;3.23;100.00
16690;BME280;8458;52.220;9.884;2022-12-07T06:20:53;100479.88;;;3.26;100.00
16690;BME280;8458;52.220;9.884;2022-12-07T06:23:19;100483.66;;;3.25;100.00
16690;BME280;8458;52.220;9.884;2022-12-07T06:25:46;100479.59;;;3.34;100.00
16690;BME280;8458;52.220;9.884;2022-12-07T06:28:12;100485.47;;;3.37;100.00
16690;BME280;8458;52.220;9.884;2022-12-07T06:30:39;100480.63;;;3.39;100.00
16690;BME280;8458;52.220;9.884;2022-12-07T06:33:07;100487.75;;;3.40;100.00
16690;BME280;8458;52.220;9.884;2022-12-07T06:35:33;100484.41;;;3.38;100.00
16690;BME280;8458;52.220;9.884;2022-12-07T06:38:00;100488.63;;;3.41;100.00
16690;BME280;8458;52.220;9.884;2022-12-07T06:40:26;100480.63;;;3.39;100.00
16690;BME280;8458;52.220;9.884;2022-12-07T06:42:53;100485.88;;;3.41;100.00
16690;BME280;8458;52.220;9.884;2022-12-07T06:45:19;100487.75;;;3.40;100.00
16690;BME280;8458;52.220;9.884;2022-12-07T06:47:46;100476.81;;;3.40;100.00
16690;BME280;8458;52.220;9.884;2022-12-07T06:50:13;100487.97;;;3.46;100.00
16690;BME280;8458;52.220;9.884;2022-12-07T06:52:40;100485.88;;;3.41;100.00
16690;BME280;8458;52.220;9.884;2022-12-07T06:55:07;100478.31;;;3.36;100.00
16690;BME280;8458;52.220;9.884;2022-12-07T06:57:33;100488.22;;;3.37;100.00
16690;BME280;8458;52.220;9.884;2022-12-07T07:00:00;100484.81;;;3.42;100.00
16690;BME280;8458;52.220;9.884;2022-12-07T07:02:27;100480.00;;;3.37;100.00
16690;BME280;8458;52.220;9.884;2022-12-07T07:04:53;100473.00;;;3.41;100.00
16690;BME280;8458;52.220;9.884;2022-12-07T07:07:21;100486.94;;;3.40;100.00
16690;BME280;8458;52.220;9.884;2022-12-07T07:09:47;100489.91;;;3.38;100.00
16690;BME280;8458;52.220;9.884;2022-12-07T07:12:14;100488.22;;;3.37;100.00
16690;BME280;8458;52.220;9.884;2022-12-07T07:14:40;100490.50;;;3.40;100.00
16690;BME280;8458;52.220;9.884;2022-12-07T07:17:07;100487.16;;;3.38;100.00
16690;BME280;8458;52.220;9.884;2022-12-07T07:19:33;100493.69;;;3.37;100.00
16690;BME280;8458;52.220;9.884;2022-12-07T07:22:00;100490.06;;;3.44;100.00
16690;BME280;8458;52.220;9.884;2022-12-07T07:24:27;100500.47;;;3.35;100.00
16690;BME280;8458;52.220;9.884;2022-12-07T07:26:54;100503.44;;;3.33;100.00
16690;BME280;8458;52.220;9.884;2022-12-07T07:29:20;100494.78;;;3.36;100.00
16690;BME280;8458;52.220;9.884;2022-12-07T07:31:47;100498.41;;;3.30;100.00
16690;BME280;8458;52.220;9.884;2022-12-07T07:34:13;100495.44;;;3.32;100.00
16690;BME280;8458;52.220;9.884;2022-12-07T07:36:40;100502.19;;;3.29;100.00
16690;BME280;8458;52.220;9.884;2022-12-07T07:39:06;100499.69;;;3.28;100.00
16690;BME280;8458;52.220;9.884;2022-12-07T07:41:34;100509.81;;;3.27;100.00
16690;BME280;8458;52.220;9.884;2022-12-07T07:44:01;100508.94;;;3.27;100.00
16690;BME280;8458;52.220;9.884;2022-12-07T07:46:27;100511.28;;;3.23;100.00
16690;BME280;8458;52.220;9.884;2022-12-07T07:48:53;100514.19;;;3.28;100.00
16690;BME280;8458;52.220;9.884;2022-12-07T07:51:20;100516.13;;;3.28;100.00
16690;BME280;8458;52.220;9.884;2022-12-07T07:53:46;100513.44;;;3.21;100.00
16690;BME280;8458;52.220;9.884;2022-12-07T07:56:13;100527.28;;;3.26;100.00
16690;BME280;8458;52.220;9.884;2022-12-07T07:58:41;100518.47;;;3.24;100.00
16690;BME280;8458;52.220;9.884;2022-12-07T08:01:07;100522.25;;;3.23;100.00
16690;BME280;8458;52.220;9.884;2022-12-07T08:03:34;100523.09;;;3.23;100.00
16690;BME280;8458;52.220;9.884;2022-12-07T08:06:01;100520.75;;;3.27;100.00
16690;BME280;8458;52.220;9.884;2022-12-07T08:08:28;100521.22;;;3.24;100.00
16690;BME280;8458;52.220;9.884;2022-12-07T08:10:54;100514.84;;;3.30;100.00
16690;BME280;8458;52.220;9.884;2022-12-07T08:13:21;100521.38;;;3.29;100.00
16690;BME280;8458;52.220;9.884;2022-12-07T08:15:48;100528.34;;;3.32;100.00
16690;BME280;8458;52.220;9.884;2022-12-07T08:18:15;100514.00;;;3.30;100.00
16690;BME280;8458;52.220;9.884;2022-12-07T08:20:42;100518.25;;;3.26;100.00
16690;BME280;8458;52.220;9.884;2022-12-07T08:23:09;100526.19;;;3.34;100.00
16690;BME280;8458;52.220;9.884;2022-12-07T08:25:36;100530.41;;;3.36;100.00
16690;BME280;8458;52.220;9.884;2022-12-07T08:28:03;100521.06;;;3.44;100.00
16690;BME280;8458;52.220;9.884;2022-12-07T08:30:30;100510.13;;;3.37;100.00
16690;BME280;8458;52.220;9.884;2022-12-07T08:32:58;100515.63;;;3.37;100.00
16690;BME280;8458;52.220;9.884;2022-12-07T08:35:25;100506.13;;;3.40;100.00
16690;BME280;8458;52.220;9.884;2022-12-07T08:37:51;100506.34;;;3.38;100.00
16690;BME280;8458;52.220;9.884;2022-12-07T08:40:18;100507.19;;;3.39;100.00
16690;BME280;8458;52.220;9.884;2022-12-07T08:42:48;100518.38;;;3.37;100.00
16690;BME280;8458;52.220;9.884;2022-12-07T08:45:16;100514.72;;;3.44;100.00
16690;BME280;8458;52.220;9.884;2022-12-07T08:47:45;100508.81;;;3.47;100.00
16690;BME280;8458;52.220;9.884;2022-12-07T08:50:14;100526.34;;;3.46;100.00
16690;BME280;8458;52.220;9.884;2022-12-07T08:52:41;100521.91;;;3.45;100.00
16690;BME280;8458;52.220;9.884;2022-12-07T08:55:09;100525.00;;;3.55;100.00
16690;BME280;8458;52.220;9.884;2022-12-07T08:57:37;100522.88;;;3.57;100.00
16690;BME280;8458;52.220;9.884;2022-12-07T09:00:06;100523.94;;;3.56;100.00
16690;BME280;8458;52.220;9.884;2022-12-07T09:02:33;100524.72;;;3.63;100.00
16690;BME280;8458;52.220;9.884;2022-12-07T09:04:59;100530.22;;;3.63;100.00
16690;BME280;8458;52.220;9.884;2022-12-07T09:07:27;100528.06;;;3.65;100.00
16690;BME280;8458;52.220;9.884;2022-12-07T09:09:55;100532.66;;;3.71;100.00
16690;BME280;8458;52.220;9.884;2022-12-07T09:12:21;100537.25;;;3.77;100.00
16690;BME280;8458;52.220;9.884;2022-12-07T09:14:48;100526.94;;;3.80;100.00
16690;BME280;8458;52.220;9.884;2022-12-07T09:17:14;100524.56;;;3.83;100.00
16690;BME280;8458;52.220;9.884;2022-12-07T09:19:41;100534.94;;;3.81;100.00
16690;BME280;8458;52.220;9.884;2022-12-07T09:22:08;100533.47;;;3.79;100.00
16690;BME280;8458;52.220;9.884;2022-12-07T09:24:36;100528.59;;;3.81;100.00
16690;BME280;8458;52.220;9.884;2022-12-07T09:27:02;100537.09;;;3.72;100.00
16690;BME280;8458;52.220;9.884;2022-12-07T09:29:28;100530.56;;;3.73;100.00
16690;BME280;8458;52.220;9.884;2022-12-07T09:31:55;100532.19;;;3.81;100.00
16690;BME280;8458;52.220;9.884;2022-12-07T09:34:21;100529.25;;;3.76;100.00
16690;BME280;8458;52.220;9.884;2022-12-07T09:36:48;100532.22;;;3.74;100.00
16690;BME280;8458;52.220;9.884;2022-12-07T09:39:14;100527.97;;;3.79;100.00
16690;BME280;8458;52.220;9.884;2022-12-07T09:41:43;100522.06;;;3.82;100.00
16690;BME280;8458;52.220;9.884;2022-12-07T09:44:13;100526.50;;;3.76;100.00
16690;BME280;8458;52.220;9.884;2022-12-07T09:46:41;100518.69;;;3.80;100.00
16690;BME280;8458;52.220;9.884;2022-12-07T09:49:11;100512.47;;;3.66;100.00
16690;BME280;8458;52.220;9.884;2022-12-07T09:51:40;100525.53;;;3.70;100.00
16690;BME280;8458;52.220;9.884;2022-12-07T09:54:08;100518.72;;;3.73;100.00
16690;BME280;8458;52.220;9.884;2022-12-07T09:56:38;100525.53;;;3.70;100.00
16690;BME280;8458;52.220;9.884;2022-12-07T09:59:05;100518.97;;;3.71;100.00
16690;BME280;8458;52.220;9.884;2022-12-07T10:01:33;100519.53;;;3.80;100.00
16690;BME280;8458;52.220;9.884;2022-12-07T10:04:08;100514.88;;;3.81;100.00
16690;BME280;8458;52.220;9.884;2022-12-07T10:06:36;100522.84;;;3.89;100.00
16690;BME280;8458;52.220;9.884;2022-12-07T10:09:08;100520.31;;;3.87;100.00
16690;BME280;8458;52.220;9.884;2022-12-07T10:11:34;100522.44;;;3.85;100.00
16690;BME280;8458;52.220;9.884;2022-12-07T10:14:12;100508.03;;;3.90;100.00
16690;BME280;8458;52.220;9.884;2022-12-07T10:16:40;100515.22;;;3.91;100.00
16690;BME280;8458;52.220;9.884;2022-12-07T10:19:23;100515.22;;;3.91;100.00
16690;BME280;8458;52.220;9.884;2022-12-07T10:22:03;100509.13;;;3.89;100.00
16690;BME280;8458;52.220;9.884;2022-12-07T10:24:30;100513.72;;;3.95;100.00
16690;BME280;8458;52.220;9.884;2022-12-07T10:26:57;100509.06;;;3.95;100.00
16690;BME280;8458;52.220;9.884;2022-12-07T10:29:29;100524.16;;;4.05;100.00
16690;BME280;8458;52.220;9.884;2022-12-07T10:31:59;100517.81;;;4.04;100.00
16690;BME280;8458;52.220;9.884;2022-12-07T10:34:27;100514.25;;;4.04;100.00
16690;BME280;8458;52.220;9.884;2022-12-07T10:37:12;100514.63;;;4.07;100.00
16690;BME280;8458;52.220;9.884;2022-12-07T10:39:41;100523.53;;;4.03;100.00
16690;BME280;8458;52.220;9.884;2022-12-07T10:42:16;100507.84;;;4.10;100.00
16690;BME280;8458;52.220;9.884;2022-12-07T10:44:44;100513.72;;;4.13;100.00
16690;BME280;8458;52.220;9.884;2022-12-07T10:47:24;100497.69;;;4.10;100.00
16690;BME280;8458;52.220;9.884;2022-12-07T10:50:17;100506.25;;;4.02;100.00
16690;BME280;8458;52.220;9.884;2022-12-07T10:53:01;100509.66;;;3.98;100.00
16690;BME280;8458;52.220;9.884;2022-12-07T10:55:39;100511.72;;;4.02;100.00
16690;BME280;8458;52.220;9.884;2022-12-07T10:58:27;100509.59;;;4.04;100.00
16690;BME280;8458;52.220;9.884;2022-12-07T11:01:01;100497.41;;;4.00;100.00
16690;BME280;8458;52.220;9.884;2022-12-07T11:03:49;100507.94;;;4.03;100.00
16690;BME280;8458;52.220;9.884;2022-12-07T11:06:27;100488.50;;;4.05;100.00
16690;BME280;8458;52.220;9.884;2022-12-07T11:09:11;100492.66;;;4.07;100.00
16690;BME280;8458;52.220;9.884;2022-12-07T11:11:53;100496.66;;;4.11;100.00
16690;BME280;8458;52.220;9.884;2022-12-07T11:14:28;100488.41;;;4.11;100.00
16690;BME280;8458;52.220;9.884;2022-12-07T11:17:01;100483.06;;;4.17;100.00
16690;BME280;8458;52.220;9.884;2022-12-07T11:19:46;100488.09;;;4.20;100.00
16690;BME280;8458;52.220;9.884;2022-12-07T11:22:20;100488.66;;;4.28;100.00
16690;BME280;8458;52.220;9.884;2022-12-07T11:24:55;100486.50;;;4.30;100.00
16690;BME280;8458;52.220;9.884;2022-12-07T11:27:28;100487.16;;;4.33;100.00
16690;BME280;8458;52.220;9.884;2022-12-07T11:30:16;100479.75;;;4.33;100.00
16690;BME280;8458;52.220;9.884;2022-12-07T11:32:58;100474.25;;;4.33;100.00
16690;BME280;8458;52.220;9.884;2022-12-07T11:35:36;100473.78;;;4.36;100.00
16690;BME280;8458;52.220;9.884;2022-12-07T11:38:11;100468.63;;;4.28;100.00
16690;BME280;8458;52.220;9.884;2022-12-07T11:40:40;100463.13;;;4.28;99.63
16690;BME280;8458;52.220;9.884;2022-12-07T11:43:15;100465.47;;;4.24;100.00
16690;BME280;8458;52.220;9.884;2022-12-07T11:45:48;100473.47;;;4.26;100.00
16690;BME280;8458;52.220;9.884;2022-12-07T11:48:20;100462.94;;;4.23;100.00
16690;BME280;8458;52.220;9.884;2022-12-07T11:50:51;100459.16;;;4.24;100.00
16690;BME280;8458;52.220;9.884;2022-12-07T11:53:22;100455.34;;;4.25;100.00
16690;BME280;8458;52.220;9.884;2022-12-07T11:55:55;100448.63;;;4.21;100.00
16690;BME280;8458;52.220;9.884;2022-12-07T11:58:40;100454.13;;;4.21;100.00
16690;BME280;8458;52.220;9.884;2022-12-07T12:01:15;100445.28;;;4.19;100.00
16690;BME280;8458;52.220;9.884;2022-12-07T12:03:50;100450.78;;;4.19;100.00
16690;BME280;8458;52.220;9.884;2022-12-07T12:06:17;100448.63;;;4.21;100.00
16690;BME280;8458;52.220;9.884;2022-12-07T12:08:48;100448.16;;;4.24;100.00
16690;BME280;8458;52.220;9.884;2022-12-07T12:11:28;100443.13;;;4.21;100.00
16690;BME280;8458;52.220;9.884;2022-12-07T12:14:22;100445.09;;;4.13;100.00
16690;BME280;8458;52.220;9.884;2022-12-07T12:17:15;100444.97;;;4.08;100.00
16690;BME280;8458;52.220;9.884;2022-12-07T12:19:58;100444.19;;;4.01;100.00
16690;BME280;8458;52.220;9.884;2022-12-07T12:22:33;100439.56;;;4.02;100.00
16690;BME280;8458;52.220;9.884;2022-12-07T12:25:04;100441.59;;;3.88;100.00
16690;BME280;8458;52.220;9.884;2022-12-07T12:27:33;100439.88;;;3.93;100.00
16690;BME280;8458;52.220;9.884;2022-12-07T12:30:02;100423.63;;;3.92;100.00
16690;BME280;8458;52.220;9.884;2022-12-07T12:32:36;100430.53;;;3.94;100.00
16690;BME280;8458;52.220;9.884;2022-12-07T12:35:31;100424.97;;;4.01;100.00
16690;BME280;8458;52.220;9.884;2022-12-07T12:38:27;100428.03;;;4.11;100.00
16690;BME280;8458;52.220;9.884;2022-12-07T12:40:53;100424.25;;;4.12;100.00
16690;BME280;8458;52.220;9.884;2022-12-07T12:46:47;100417.38;;;4.22;100.00
16690;BME280;8458;52.220;9.884;2022-12-07T12:49:39;100420.50;;;4.25;99.86
16690;BME280;8458;52.220;9.884;2022-12-07T12:55:19;100406.69;;;4.32;97.98
16690;BME280;8458;52.220;9.884;2022-12-07T12:57:48;100403.25;;;4.37;97.71
16690;BME280;8458;52.220;9.884;2022-12-07T13:00:34;100404.84;;;4.44;97.43
16690;BME280;8458;52.220;9.884;2022-12-07T13:03:01;100387.44;;;4.51;97.55
16690;BME280;8458;52.220;9.884;2022-12-07T13:05:29;100399.03;;;4.53;97.47
16690;BME280;8458;52.220;9.884;2022-12-07T13:07:58;100400.88;;;4.59;95.92
16690;BME280;8458;52.220;9.884;2022-12-07T13:10:34;100396.44;;;4.58;96.06
16690;BME280;8458;52.220;9.884;2022-12-07T13:13:04;100399.19;;;4.58;96.57
16690;BME280;8458;52.220;9.884;2022-12-07T13:15:33;100403.38;;;4.60;96.38
16690;BME280;8458;52.220;9.884;2022-12-07T13:18:03;100393.69;;;4.58;96.42
16690;BME280;8458;52.220;9.884;2022-12-07T13:20:47;100394.16;;;4.55;96.82
16690;BME280;8458;52.220;9.884;2022-12-07T13:23:18;100400.41;;;4.62;97.01
16690;BME280;8458;52.220;9.884;2022-12-07T13:25:51;100404.22;;;4.61;96.31